sensor_id;sensor_type;location;lat;lon;timestamp;noise_LAeq;noise_LA_min;noise_LA_max;noise_LA01;noise_LA95
76261;Laerm;65076;52.362;6.588;2023-02-21T00:01:42;35.78;31.39;46.71;;
76261;Laerm;65076;52.362;6.588;2023-02-21T00:04:28;36.89;31.64;53.06;;
76261;Laerm;65076;52.362;6.588;2023-02-21T00:07:14;35.66;32.05;49.55;;
76261;Laerm;65076;52.362;6.588;2023-02-21T00:09:59;40.70;32.93;56.86;;
76261;Laerm;65076;52.362;6.588;2023-02-21T00:12:46;68.97;33.16;85.17;;
76261;Laerm;65076;52.362;6.588;2023-02-21T00:15:32;35.37;31.50;49.15;;
76261;Laerm;65076;52.362;6.588;2023-02-21T00:18:18;36.55;31.60;48.30;;
76261;Laerm;65076;52.362;6.588;2023-02-21T00:21:04;36.01;32.26;54.32;;
76261;Laerm;65076;52.362;6.588;2023-02-21T00:23:49;48.44;31.11;68.35;;
76261;Laerm;65076;52.362;6.588;2023-02-21T00:26:35;35.17;31.80;48.89;;
76261;Laerm;65076;52.362;6.588;2023-02-21T00:29:22;40.96;31.23;59.78;;
76261;Laerm;65076;52.362;6.588;2023-02-21T00:32:07;35.90;31.56;45.81;;
76261;Laerm;65076;52.362;6.588;2023-02-21T00:34:52;69.25;32.59;84.76;;
76261;Laerm;65076;52.362;6.588;2023-02-21T00:37:38;36.99;32.58;49.41;;
76261;Laerm;65076;52.362;6.588;2023-02-21T00:40:24;36.95;32.09;47.72;;
76261;Laerm;65076;52.362;6.588;2023-02-21T00:43:10;36.26;31.85;44.97;;
76261;Laerm;65076;52.362;6.588;2023-02-21T00:45:57;36.49;31.19;51.59;;
76261;Laerm;65076;52.362;6.588;2023-02-21T00:48:42;35.82;31.63;42.88;;
76261;Laerm;65076;52.362;6.588;2023-02-21T00:51:28;35.06;31.39;47.50;;
76261;Laerm;65076;52.362;6.588;2023-02-21T00:54:13;38.02;32.35;51.98;;
76261;Laerm;65076;52.362;6.588;2023-02-21T00:56:59;37.05;31.20;48.75;;
76261;Laerm;65076;52.362;6.588;2023-02-21T00:59:45;39.10;32.22;48.98;;
76261;Laerm;65076;52.362;6.588;2023-02-21T01:02:32;37.49;31.39;49.81;;
76261;Laerm;65076;52.362;6.588;2023-02-21T01:05:17;36.92;31.38;47.18;;
76261;Laerm;65076;52.362;6.588;2023-02-21T01:08:03;36.54;31.50;51.08;;
76261;Laerm;65076;52.362;6.588;2023-02-21T01:10:48;35.92;31.06;51.50;;
76261;Laerm;65076;52.362;6.588;2023-02-21T01:13:33;35.89;31.02;53.91;;
76261;Laerm;65076;52.362;6.588;2023-02-21T01:16:19;43.65;31.38;60.17;;
76261;Laerm;65076;52.362;6.588;2023-02-21T01:19:06;36.52;31.59;55.10;;
76261;Laerm;65076;52.362;6.588;2023-02-21T01:21:52;36.16;31.14;57.32;;
76261;Laerm;65076;52.362;6.588;2023-02-21T01:24:37;35.92;31.11;48.95;;
76261;Laerm;65076;52.362;6.588;2023-02-21T01:27:23;36.74;31.99;51.38;;
76261;Laerm;65076;52.362;6.588;2023-02-21T01:30:09;34.76;30.71;46.95;;
76261;Laerm;65076;52.362;6.588;2023-02-21T01:32:55;34.99;30.84;48.32;;
76261;Laerm;65076;52.362;6.588;2023-02-21T01:35:42;35.54;31.55;44.59;;
76261;Laerm;65076;52.362;6.588;2023-02-21T01:38:27;35.20;31.70;47.17;;
76261;Laerm;65076;52.362;6.588;2023-02-21T01:41:13;35.03;30.99;50.57;;
76261;Laerm;65076;52.362;6.588;2023-02-21T01:44:01;61.77;31.46;78.29;;
76261;Laerm;65076;52.362;6.588;2023-02-21T01:46:47;67.28;32.51;81.26;;
76261;Laerm;65076;52.362;6.588;2023-02-21T01:49:34;35.76;31.70;48.11;;
76261;Laerm;65076;52.362;6.588;2023-02-21T01:52:24;35.52;31.26;51.57;;
76261;Laerm;65076;52.362;6.588;2023-02-21T01:55:10;37.16;32.68;46.47;;
76261;Laerm;65076;52.362;6.588;2023-02-21T01:57:56;36.65;32.22;54.29;;
76261;Laerm;65076;52.362;6.588;2023-02-21T02:00:42;35.37;31.83;44.36;;
76261;Laerm;65076;52.362;6.588;2023-02-21T02:03:30;34.70;30.83;39.58;;
76261;Laerm;65076;52.362;6.588;2023-02-21T02:06:16;34.99;30.73;40.23;;
76261;Laerm;65076;52.362;6.588;2023-02-21T02:09:15;34.82;30.91;43.19;;
76261;Laerm;65076;52.362;6.588;2023-02-21T02:12:29;36.00;31.27;47.14;;
76261;Laerm;65076;52.362;6.588;2023-02-21T02:15:23;36.79;31.40;53.84;;
76261;Laerm;65076;52.362;6.588;2023-02-21T02:18:38;35.65;30.53;56.02;;
76261;Laerm;65076;52.362;6.588;2023-02-21T02:21:56;35.37;31.03;48.05;;
76261;Laerm;65076;52.362;6.588;2023-02-21T02:25:00;35.64;31.04;54.06;;
76261;Laerm;65076;52.362;6.588;2023-02-21T02:27:44;34.68;30.93;48.57;;
76261;Laerm;65076;52.362;6.588;2023-02-21T02:31:03;34.56;30.34;46.13;;
76261;Laerm;65076;52.362;6.588;2023-02-21T02:37:11;36.97;31.28;63.03;;
76261;Laerm;65076;52.362;6.588;2023-02-21T02:39:48;35.96;31.05;54.70;;
76261;Laerm;65076;52.362;6.588;2023-02-21T02:42:34;36.58;31.62;49.65;;
76261;Laerm;65076;52.362;6.588;2023-02-21T02:45:10;36.69;32.12;48.50;;
76261;Laerm;65076;52.362;6.588;2023-02-21T02:47:44;35.57;31.58;49.60;;
76261;Laerm;65076;52.362;6.588;2023-02-21T02:50:14;35.04;31.33;51.55;;
76261;Laerm;65076;52.362;6.588;2023-02-21T02:52:52;35.10;31.82;42.89;;
76261;Laerm;65076;52.362;6.588;2023-02-21T02:55:33;37.12;31.72;51.80;;
76261;Laerm;65076;52.362;6.588;2023-02-21T02:58:04;35.84;31.67;40.36;;
76261;Laerm;65076;52.362;6.588;2023-02-21T03:00:35;36.78;31.78;55.43;;
76261;Laerm;65076;52.362;6.588;2023-02-21T03:03:29;36.38;31.89;58.27;;
76261;Laerm;65076;52.362;6.588;2023-02-21T03:06:18;66.87;33.07;80.48;;
76261;Laerm;65076;52.362;6.588;2023-02-21T03:09:00;43.54;31.51;60.59;;
76261;Laerm;65076;52.362;6.588;2023-02-21T03:11:29;35.96;32.01;50.24;;
76261;Laerm;65076;52.362;6.588;2023-02-21T03:14:07;36.16;32.07;51.08;;
76261;Laerm;65076;52.362;6.588;2023-02-21T03:16:42;34.96;31.25;46.23;;
76261;Laerm;65076;52.362;6.588;2023-02-21T03:19:16;38.27;31.74;48.69;;
76261;Laerm;65076;52.362;6.588;2023-02-21T03:21:51;43.84;33.34;58.00;;
76261;Laerm;65076;52.362;6.588;2023-02-21T03:24:24;35.83;32.53;48.80;;
76261;Laerm;65076;52.362;6.588;2023-02-21T03:26:58;37.81;33.39;61.29;;
76261;Laerm;65076;52.362;6.588;2023-02-21T03:29:27;35.39;31.77;41.84;;
76261;Laerm;65076;52.362;6.588;2023-02-21T03:32:04;43.66;32.43;60.31;;
76261;Laerm;65076;52.362;6.588;2023-02-21T03:34:41;37.58;32.82;48.44;;
76261;Laerm;65076;52.362;6.588;2023-02-21T03:37:58;35.90;32.63;42.26;;
76261;Laerm;65076;52.362;6.588;2023-02-21T03:40:30;42.82;32.27;60.33;;
76261;Laerm;65076;52.362;6.588;2023-02-21T03:43:01;39.83;32.36;53.37;;
76261;Laerm;65076;52.362;6.588;2023-02-21T03:45:29;37.60;32.23;49.80;;
76261;Laerm;65076;52.362;6.588;2023-02-21T03:47:57;42.58;31.80;56.52;;
76261;Laerm;65076;52.362;6.588;2023-02-21T03:50:25;37.12;32.39;52.92;;
76261;Laerm;65076;52.362;6.588;2023-02-21T03:52:53;45.81;32.04;63.97;;
76261;Laerm;65076;52.362;6.588;2023-02-21T03:55:21;40.98;31.89;61.13;;
76261;Laerm;65076;52.362;6.588;2023-02-21T03:57:50;47.45;33.54;64.17;;
76261;Laerm;65076;52.362;6.588;2023-02-21T04:00:18;49.17;32.16;68.15;;
76261;Laerm;65076;52.362;6.588;2023-02-21T04:02:46;54.17;32.82;71.28;;
76261;Laerm;65076;52.362;6.588;2023-02-21T04:05:14;54.28;31.90;70.55;;
76261;Laerm;65076;52.362;6.588;2023-02-21T04:07:42;54.11;32.94;70.68;;
76261;Laerm;65076;52.362;6.588;2023-02-21T04:10:11;69.28;35.15;81.92;;
76261;Laerm;65076;52.362;6.588;2023-02-21T04:12:39;56.03;33.39;71.09;;
76261;Laerm;65076;52.362;6.588;2023-02-21T04:15:10;54.31;32.83;69.53;;
76261;Laerm;65076;52.362;6.588;2023-02-21T04:17:38;55.17;33.87;72.92;;
76261;Laerm;65076;52.362;6.588;2023-02-21T04:20:07;54.55;34.39;70.98;;
76261;Laerm;65076;52.362;6.588;2023-02-21T04:22:35;56.68;34.17;72.53;;
76261;Laerm;65076;52.362;6.588;2023-02-21T04:25:03;55.44;34.29;72.72;;
76261;Laerm;65076;52.362;6.588;2023-02-21T04:27:31;55.16;33.56;71.33;;
76261;Laerm;65076;52.362;6.588;2023-02-21T04:30:00;52.53;34.90;68.79;;
76261;Laerm;65076;52.362;6.588;2023-02-21T04:32:30;53.01;34.82;68.38;;
76261;Laerm;65076;52.362;6.588;2023-02-21T04:34:58;54.19;34.93;69.07;;
76261;Laerm;65076;52.362;6.588;2023-02-21T04:37:26;58.42;33.91;76.34;;
76261;Laerm;65076;52.362;6.588;2023-02-21T04:39:53;59.75;35.80;75.39;;
76261;Laerm;65076;52.362;6.588;2023-02-21T04:42:21;53.28;35.11;70.73;;
76261;Laerm;65076;52.362;6.588;2023-02-21T04:44:49;51.42;34.70;66.20;;
76261;Laerm;65076;52.362;6.588;2023-02-21T04:47:26;52.76;35.33;66.71;;
76261;Laerm;65076;52.362;6.588;2023-02-21T04:49:55;54.05;34.67;71.00;;
76261;Laerm;65076;52.362;6.588;2023-02-21T04:52:24;57.43;36.02;71.24;;
76261;Laerm;65076;52.362;6.588;2023-02-21T04:54:52;53.86;34.35;68.13;;
76261;Laerm;65076;52.362;6.588;2023-02-21T04:57:20;51.40;34.90;64.91;;
76261;Laerm;65076;52.362;6.588;2023-02-21T04:59:48;55.99;35.43;72.61;;
76261;Laerm;65076;52.362;6.588;2023-02-21T05:02:22;54.24;35.50;67.34;;
76261;Laerm;65076;52.362;6.588;2023-02-21T05:04:50;52.33;35.15;67.96;;
76261;Laerm;65076;52.362;6.588;2023-02-21T05:07:20;52.88;36.63;67.43;;
76261;Laerm;65076;52.362;6.588;2023-02-21T05:09:48;59.48;38.18;77.43;;
76261;Laerm;65076;52.362;6.588;2023-02-21T05:12:16;64.11;36.85;79.27;;
76261;Laerm;65076;52.362;6.588;2023-02-21T05:14:44;55.63;36.96;69.30;;
76261;Laerm;65076;52.362;6.588;2023-02-21T05:17:12;68.23;39.31;79.72;;
76261;Laerm;65076;52.362;6.588;2023-02-21T05:19:40;54.57;36.32;69.07;;
76261;Laerm;65076;52.362;6.588;2023-02-21T05:22:08;52.36;36.63;68.74;;
76261;Laerm;65076;52.362;6.588;2023-02-21T05:24:41;54.08;37.39;67.53;;
76261;Laerm;65076;52.362;6.588;2023-02-21T05:27:09;53.31;37.39;66.71;;
76261;Laerm;65076;52.362;6.588;2023-02-21T05:29:41;54.53;36.54;70.87;;
76261;Laerm;65076;52.362;6.588;2023-02-21T05:32:10;54.53;37.13;72.17;;
76261;Laerm;65076;52.362;6.588;2023-02-21T05:34:38;52.02;36.68;65.64;;
76261;Laerm;65076;52.362;6.588;2023-02-21T05:37:10;57.86;38.18;76.49;;
76261;Laerm;65076;52.362;6.588;2023-02-21T05:39:39;54.88;38.66;71.22;;
76261;Laerm;65076;52.362;6.588;2023-02-21T05:42:07;63.65;39.15;78.15;;
76261;Laerm;65076;52.362;6.588;2023-02-21T05:44:35;58.57;37.38;76.37;;
76261;Laerm;65076;52.362;6.588;2023-02-21T05:47:04;60.59;38.76;77.71;;
76261;Laerm;65076;52.362;6.588;2023-02-21T05:49:33;59.94;39.16;77.25;;
76261;Laerm;65076;52.362;6.588;2023-02-21T05:52:01;58.10;39.40;73.04;;
76261;Laerm;65076;52.362;6.588;2023-02-21T05:54:30;58.51;41.44;74.58;;
76261;Laerm;65076;52.362;6.588;2023-02-21T05:56:59;58.79;39.89;76.17;;
76261;Laerm;65076;52.362;6.588;2023-02-21T05:59:27;54.10;38.21;71.73;;
76261;Laerm;65076;52.362;6.588;2023-02-21T06:01:55;57.55;39.13;74.87;;
76261;Laerm;65076;52.362;6.588;2023-02-21T06:04:23;53.41;39.38;65.72;;
76261;Laerm;65076;52.362;6.588;2023-02-21T06:06:51;55.62;38.22;68.33;;
76261;Laerm;65076;52.362;6.588;2023-02-21T06:09:20;60.37;42.69;76.00;;
76261;Laerm;65076;52.362;6.588;2023-02-21T06:11:48;61.80;38.86;76.30;;
76261;Laerm;65076;52.362;6.588;2023-02-21T06:14:19;55.11;38.86;67.47;;
76261;Laerm;65076;52.362;6.588;2023-02-21T06:16:47;56.91;38.08;70.11;;
76261;Laerm;65076;52.362;6.588;2023-02-21T06:19:16;60.13;40.56;75.48;;
76261;Laerm;65076;52.362;6.588;2023-02-21T06:21:44;59.36;40.90;76.29;;
76261;Laerm;65076;52.362;6.588;2023-02-21T06:24:12;57.26;39.64;68.87;;
76261;Laerm;65076;52.362;6.588;2023-02-21T06:26:41;58.11;40.33;71.34;;
76261;Laerm;65076;52.362;6.588;2023-02-21T06:29:11;57.18;47.29;66.00;;
76261;Laerm;65076;52.362;6.588;2023-02-21T06:31:41;58.26;40.17;72.81;;
76261;Laerm;65076;52.362;6.588;2023-02-21T06:34:09;57.92;39.43;68.33;;
76261;Laerm;65076;52.362;6.588;2023-02-21T06:36:37;58.65;42.60;72.78;;
76261;Laerm;65076;52.362;6.588;2023-02-21T06:39:05;61.93;42.26;76.50;;
76261;Laerm;65076;52.362;6.588;2023-02-21T06:41:33;61.51;44.41;75.97;;
76261;Laerm;65076;52.362;6.588;2023-02-21T06:44:01;57.31;42.25;66.18;;
76261;Laerm;65076;52.362;6.588;2023-02-21T06:46:29;58.39;42.39;68.21;;
76261;Laerm;65076;52.362;6.588;2023-02-21T06:48:59;55.90;40.36;67.39;;
76261;Laerm;65076;52.362;6.588;2023-02-21T06:51:27;58.25;45.16;69.96;;
76261;Laerm;65076;52.362;6.588;2023-02-21T06:53:57;60.98;41.96;74.85;;
76261;Laerm;65076;52.362;6.588;2023-02-21T06:56:26;58.94;46.12;73.45;;
76261;Laerm;65076;52.362;6.588;2023-02-21T06:58:55;56.16;46.26;71.26;;
76261;Laerm;65076;52.362;6.588;2023-02-21T07:01:25;57.74;39.89;67.46;;
76261;Laerm;65076;52.362;6.588;2023-02-21T07:03:54;56.97;40.09;68.74;;
76261;Laerm;65076;52.362;6.588;2023-02-21T07:06:24;57.32;43.36;69.33;;
76261;Laerm;65076;52.362;6.588;2023-02-21T07:08:55;60.23;44.97;75.50;;
76261;Laerm;65076;52.362;6.588;2023-02-21T07:11:23;66.59;41.71;77.15;;
76261;Laerm;65076;52.362;6.588;2023-02-21T07:13:53;55.02;42.24;66.03;;
76261;Laerm;65076;52.362;6.588;2023-02-21T07:16:22;55.31;40.34;65.06;;
76261;Laerm;65076;52.362;6.588;2023-02-21T07:18:51;55.92;41.98;65.87;;
76261;Laerm;65076;52.362;6.588;2023-02-21T07:21:20;60.12;40.42;74.42;;
76261;Laerm;65076;52.362;6.588;2023-02-21T07:23:50;56.77;41.98;65.75;;
76261;Laerm;65076;52.362;6.588;2023-02-21T07:26:18;58.43;41.19;72.77;;
76261;Laerm;65076;52.362;6.588;2023-02-21T07:28:47;55.07;42.24;67.58;;
76261;Laerm;65076;52.362;6.588;2023-02-21T07:31:16;59.67;44.73;72.18;;
76261;Laerm;65076;52.362;6.588;2023-02-21T07:33:46;51.12;37.77;63.02;;
76261;Laerm;65076;52.362;6.588;2023-02-21T07:36:15;58.17;41.60;82.31;;
76261;Laerm;65076;52.362;6.588;2023-02-21T07:38:43;59.30;42.10;76.13;;
76261;Laerm;65076;52.362;6.588;2023-02-21T07:41:14;62.07;40.60;77.06;;
76261;Laerm;65076;52.362;6.588;2023-02-21T07:43:43;60.93;41.83;76.17;;
76261;Laerm;65076;52.362;6.588;2023-02-21T07:46:14;57.67;39.05;70.16;;
76261;Laerm;65076;52.362;6.588;2023-02-21T07:48:44;63.68;38.51;74.86;;
76261;Laerm;65076;52.362;6.588;2023-02-21T07:51:12;60.40;42.28;75.66;;
76261;Laerm;65076;52.362;6.588;2023-02-21T07:53:41;55.53;43.10;67.40;;
76261;Laerm;65076;52.362;6.588;2023-02-21T07:56:08;59.11;39.16;76.39;;
76261;Laerm;65076;52.362;6.588;2023-02-21T07:58:40;54.32;41.76;70.49;;
76261;Laerm;65076;52.362;6.588;2023-02-21T08:01:08;59.08;42.05;72.33;;
76261;Laerm;65076;52.362;6.588;2023-02-21T08:03:36;60.83;39.38;73.54;;
76261;Laerm;65076;52.362;6.588;2023-02-21T08:06:08;56.72;39.37;70.15;;
76261;Laerm;65076;52.362;6.588;2023-02-21T08:08:36;58.72;40.51;76.38;;
76261;Laerm;65076;52.362;6.588;2023-02-21T08:11:05;59.82;40.15;75.53;;
76261;Laerm;65076;52.362;6.588;2023-02-21T08:13:33;58.50;41.56;72.21;;
76261;Laerm;65076;52.362;6.588;2023-02-21T08:16:02;54.19;37.66;66.85;;
76261;Laerm;65076;52.362;6.588;2023-02-21T08:18:30;61.06;37.91;77.30;;
76261;Laerm;65076;52.362;6.588;2023-02-21T08:20:59;62.04;41.80;76.64;;
76261;Laerm;65076;52.362;6.588;2023-02-21T08:23:27;52.67;37.54;66.07;;
76261;Laerm;65076;52.362;6.588;2023-02-21T08:25:55;57.10;39.98;68.73;;
76261;Laerm;65076;52.362;6.588;2023-02-21T08:28:23;56.43;40.97;71.75;;
76261;Laerm;65076;52.362;6.588;2023-02-21T08:30:51;57.32;47.70;71.76;;
76261;Laerm;65076;52.362;6.588;2023-02-21T08:33:21;56.32;39.90;69.69;;
76261;Laerm;65076;52.362;6.588;2023-02-21T08:35:49;50.61;37.27;65.86;;
76261;Laerm;65076;52.362;6.588;2023-02-21T08:38:18;56.70;39.44;75.43;;
76261;Laerm;65076;52.362;6.588;2023-02-21T08:40:47;56.82;40.64;74.55;;
76261;Laerm;65076;52.362;6.588;2023-02-21T08:43:17;60.15;40.01;76.10;;
76261;Laerm;65076;52.362;6.588;2023-02-21T08:45:45;50.95;36.44;61.55;;
76261;Laerm;65076;52.362;6.588;2023-02-21T08:48:13;53.03;38.94;64.30;;
76261;Laerm;65076;52.362;6.588;2023-02-21T08:50:42;56.68;39.50;67.61;;
76261;Laerm;65076;52.362;6.588;2023-02-21T08:53:11;61.75;39.18;78.44;;
76261;Laerm;65076;52.362;6.588;2023-02-21T08:55:41;59.26;41.14;76.92;;
76261;Laerm;65076;52.362;6.588;2023-02-21T08:58:10;52.78;37.65;69.33;;
76261;Laerm;65076;52.362;6.588;2023-02-21T09:00:38;55.66;40.82;70.68;;
76261;Laerm;65076;52.362;6.588;2023-02-21T09:03:06;51.81;37.56;65.27;;
76261;Laerm;65076;52.362;6.588;2023-02-21T09:05:34;52.76;39.05;67.48;;
76261;Laerm;65076;52.362;6.588;2023-02-21T09:08:08;62.81;39.71;75.76;;
76261;Laerm;65076;52.362;6.588;2023-02-21T09:10:36;63.54;44.85;75.90;;
76261;Laerm;65076;52.362;6.588;2023-02-21T09:13:13;55.10;38.49;73.14;;
76261;Laerm;65076;52.362;6.588;2023-02-21T09:15:41;52.05;39.42;63.11;;
76261;Laerm;65076;52.362;6.588;2023-02-21T09:18:09;57.18;39.66;68.59;;
76261;Laerm;65076;52.362;6.588;2023-02-21T09:20:39;59.36;38.31;77.58;;
76261;Laerm;65076;52.362;6.588;2023-02-21T09:23:10;54.63;39.21;65.03;;
76261;Laerm;65076;52.362;6.588;2023-02-21T09:25:41;55.43;40.74;66.80;;
76261;Laerm;65076;52.362;6.588;2023-02-21T09:28:09;57.92;42.87;74.10;;
76261;Laerm;65076;52.362;6.588;2023-02-21T09:30:39;56.53;44.44;72.13;;
76261;Laerm;65076;52.362;6.588;2023-02-21T09:33:07;54.35;39.34;67.09;;
76261;Laerm;65076;52.362;6.588;2023-02-21T09:35:36;53.26;37.00;67.47;;
76261;Laerm;65076;52.362;6.588;2023-02-21T09:38:05;59.08;41.70;74.74;;
76261;Laerm;65076;52.362;6.588;2023-02-21T09:40:40;62.51;40.36;76.45;;
76261;Laerm;65076;52.362;6.588;2023-02-21T09:43:14;62.45;38.66;76.90;;
76261;Laerm;65076;52.362;6.588;2023-02-21T09:45:44;53.06;38.89;63.73;;
76261;Laerm;65076;52.362;6.588;2023-02-21T09:48:14;53.15;37.53;64.25;;
76261;Laerm;65076;52.362;6.588;2023-02-21T09:50:49;58.67;39.35;74.12;;
76261;Laerm;65076;52.362;6.588;2023-02-21T09:53:22;54.05;37.92;67.27;;
76261;Laerm;65076;52.362;6.588;2023-02-21T09:55:57;55.00;42.30;66.29;;
76261;Laerm;65076;52.362;6.588;2023-02-21T09:58:27;58.75;40.54;76.08;;
76261;Laerm;65076;52.362;6.588;2023-02-21T10:01:02;56.25;42.71;71.09;;
76261;Laerm;65076;52.362;6.588;2023-02-21T10:03:47;53.56;37.63;66.61;;
76261;Laerm;65076;52.362;6.588;2023-02-21T10:06:34;53.69;38.10;67.48;;
76261;Laerm;65076;52.362;6.588;2023-02-21T10:09:18;60.55;43.23;76.62;;
76261;Laerm;65076;52.362;6.588;2023-02-21T10:12:00;60.99;39.89;77.56;;
76261;Laerm;65076;52.362;6.588;2023-02-21T10:14:45;54.46;39.36;65.01;;
76261;Laerm;65076;52.362;6.588;2023-02-21T10:17:21;53.61;39.08;65.76;;
76261;Laerm;65076;52.362;6.588;2023-02-21T10:19:58;62.94;38.11;77.05;;
76261;Laerm;65076;52.362;6.588;2023-02-21T10:22:33;57.28;39.17;72.94;;
76261;Laerm;65076;52.362;6.588;2023-02-21T10:25:20;55.90;37.59;71.23;;
76261;Laerm;65076;52.362;6.588;2023-02-21T10:27:52;54.45;39.68;64.71;;
76261;Laerm;65076;52.362;6.588;2023-02-21T10:30:29;55.28;42.75;72.50;;
76261;Laerm;65076;52.362;6.588;2023-02-21T10:32:58;56.34;38.91;69.09;;
76261;Laerm;65076;52.362;6.588;2023-02-21T10:35:26;55.71;38.80;71.83;;
76261;Laerm;65076;52.362;6.588;2023-02-21T10:38:00;60.68;42.43;77.39;;
76261;Laerm;65076;52.362;6.588;2023-02-21T10:40:33;54.11;38.94;64.91;;
76261;Laerm;65076;52.362;6.588;2023-02-21T10:43:11;62.06;42.00;79.07;;
76261;Laerm;65076;52.362;6.588;2023-02-21T10:45:48;64.46;38.21;76.35;;
76261;Laerm;65076;52.362;6.588;2023-02-21T10:48:19;71.41;39.23;84.84;;
76261;Laerm;65076;52.362;6.588;2023-02-21T10:50:50;59.50;40.38;74.96;;
76261;Laerm;65076;52.362;6.588;2023-02-21T10:53:27;54.39;39.13;68.87;;
76261;Laerm;65076;52.362;6.588;2023-02-21T10:56:21;54.23;40.07;68.60;;
76261;Laerm;65076;52.362;6.588;2023-02-21T10:58:55;58.21;42.03;76.64;;
76261;Laerm;65076;52.362;6.588;2023-02-21T11:01:34;56.39;41.52;70.55;;
76261;Laerm;65076;52.362;6.588;2023-02-21T11:04:06;57.43;43.00;67.08;;
76261;Laerm;65076;52.362;6.588;2023-02-21T11:06:38;57.15;42.73;73.41;;
76261;Laerm;65076;52.362;6.588;2023-02-21T11:09:33;58.53;44.34;77.87;;
76261;Laerm;65076;52.362;6.588;2023-02-21T11:12:11;60.53;39.26;76.50;;
76261;Laerm;65076;52.362;6.588;2023-02-21T11:15:10;56.94;41.74;67.57;;
76261;Laerm;65076;52.362;6.588;2023-02-21T11:17:43;54.28;37.74;73.49;;
76261;Laerm;65076;52.362;6.588;2023-02-21T11:20:19;58.98;40.86;75.14;;
76261;Laerm;65076;52.362;6.588;2023-02-21T11:22:50;54.91;37.85;67.41;;
76261;Laerm;65076;52.362;6.588;2023-02-21T11:25:25;57.16;43.07;70.60;;
76261;Laerm;65076;52.362;6.588;2023-02-21T11:28:17;55.46;41.37;66.46;;
76261;Laerm;65076;52.362;6.588;2023-02-21T11:31:01;56.54;42.04;71.89;;
76261;Laerm;65076;52.362;6.588;2023-02-21T11:33:35;56.05;40.66;72.76;;
76261;Laerm;65076;52.362;6.588;2023-02-21T11:36:11;56.99;36.01;73.93;;
76261;Laerm;65076;52.362;6.588;2023-02-21T11:38:43;62.70;41.32;76.24;;
76261;Laerm;65076;52.362;6.588;2023-02-21T11:41:21;58.75;39.75;76.00;;
76261;Laerm;65076;52.362;6.588;2023-02-21T11:43:51;67.61;37.40;78.46;;
76261;Laerm;65076;52.362;6.588;2023-02-21T11:46:36;53.81;39.29;65.64;;
76261;Laerm;65076;52.362;6.588;2023-02-21T11:49:16;56.59;41.34;70.86;;
76261;Laerm;65076;52.362;6.588;2023-02-21T11:51:52;58.55;37.76;75.76;;
76261;Laerm;65076;52.362;6.588;2023-02-21T11:54:26;57.71;39.67;69.20;;
76261;Laerm;65076;52.362;6.588;2023-02-21T11:57:02;55.60;36.04;70.20;;
76261;Laerm;65076;52.362;6.588;2023-02-21T11:59:45;54.86;39.58;70.95;;
76261;Laerm;65076;52.362;6.588;2023-02-21T12:02:55;55.54;41.34;67.65;;
76261;Laerm;65076;52.362;6.588;2023-02-21T12:05:46;56.18;42.23;68.68;;
76261;Laerm;65076;52.362;6.588;2023-02-21T12:08:38;58.78;44.35;76.57;;
76261;Laerm;65076;52.362;6.588;2023-02-21T12:11:44;59.64;45.42;77.92;;
76261;Laerm;65076;52.362;6.588;2023-02-21T12:14:45;58.66;46.35;70.50;;
76261;Laerm;65076;52.362;6.588;2023-02-21T12:17:50;58.66;49.55;69.39;;
76261;Laerm;65076;52.362;6.588;2023-02-21T12:20:46;64.27;50.24;77.81;;
76261;Laerm;65076;52.362;6.588;2023-02-21T12:23:28;57.34;47.76;67.38;;
76261;Laerm;65076;52.362;6.588;2023-02-21T12:26:17;57.00;47.41;68.40;;
76261;Laerm;65076;52.362;6.588;2023-02-21T12:29:05;55.48;46.32;70.82;;
76261;Laerm;65076;52.362;6.588;2023-02-21T12:31:59;60.45;46.42;82.34;;
76261;Laerm;65076;52.362;6.588;2023-02-21T12:34:51;64.49;48.64;73.18;;
76261;Laerm;65076;52.362;6.588;2023-02-21T12:37:29;59.37;46.53;76.27;;
76261;Laerm;65076;52.362;6.588;2023-02-21T12:40:28;59.85;40.78;75.10;;
76261;Laerm;65076;52.362;6.588;2023-02-21T12:43:21;57.43;43.18;68.72;;
76261;Laerm;65076;52.362;6.588;2023-02-21T12:46:00;54.35;43.98;70.79;;
76261;Laerm;65076;52.362;6.588;2023-02-21T12:48:39;64.65;44.50;76.93;;
76261;Laerm;65076;52.362;6.588;2023-02-21T12:51:16;60.03;46.11;73.62;;
76261;Laerm;65076;52.362;6.588;2023-02-21T12:53:52;58.22;45.97;67.97;;
76261;Laerm;65076;52.362;6.588;2023-02-21T12:56:27;61.23;42.45;78.81;;
76261;Laerm;65076;52.362;6.588;2023-02-21T12:59:03;54.49;42.53;71.01;;
76261;Laerm;65076;52.362;6.588;2023-02-21T13:01:40;55.75;43.89;66.68;;
76261;Laerm;65076;52.362;6.588;2023-02-21T13:04:23;56.65;42.98;68.38;;
76261;Laerm;65076;52.362;6.588;2023-02-21T13:07:04;60.11;40.77;70.51;;
76261;Laerm;65076;52.362;6.588;2023-02-21T13:09:46;61.49;41.01;77.59;;
76261;Laerm;65076;52.362;6.588;2023-02-21T13:12:20;58.71;39.78;74.84;;
76261;Laerm;65076;52.362;6.588;2023-02-21T13:14:57;56.61;42.78;66.58;;
76261;Laerm;65076;52.362;6.588;2023-02-21T13:17:26;54.87;40.58;65.47;;
76261;Laerm;65076;52.362;6.588;2023-02-21T13:20:01;54.35;38.85;67.53;;
76261;Laerm;65076;52.362;6.588;2023-02-21T13:25:36;56.41;43.11;67.94;;
76261;Laerm;65076;52.362;6.588;2023-02-21T13:28:14;56.15;42.88;67.29;;
76261;Laerm;65076;52.362;6.588;2023-02-21T13:30:49;58.15;43.46;71.55;;
76261;Laerm;65076;52.362;6.588;2023-02-21T13:33:27;56.79;38.55;70.63;;
76261;Laerm;65076;52.362;6.588;2023-02-21T13:35:58;54.43;40.56;65.10;;
76261;Laerm;65076;52.362;6.588;2023-02-21T13:38:31;62.45;42.08;77.02;;
76261;Laerm;65076;52.362;6.588;2023-02-21T13:41:07;57.33;41.04;74.67;;
76261;Laerm;65076;52.362;6.588;2023-02-21T13:43:46;56.00;41.95;64.74;;
76261;Laerm;65076;52.362;6.588;2023-02-21T13:46:59;64.37;43.43;84.40;;
76261;Laerm;65076;52.362;6.588;2023-02-21T13:49:50;68.04;42.11;80.91;;
76261;Laerm;65076;52.362;6.588;2023-02-21T13:53:14;57.72;43.62;76.49;;
76261;Laerm;65076;52.362;6.588;2023-02-21T13:56:16;57.44;43.38;71.60;;
76261;Laerm;65076;52.362;6.588;2023-02-21T13:58:45;59.48;41.36;74.50;;
76261;Laerm;65076;52.362;6.588;2023-02-21T14:05:03;56.00;44.02;70.19;;
76261;Laerm;65076;52.362;6.588;2023-02-21T14:07:55;57.24;42.25;67.19;;
76261;Laerm;65076;52.362;6.588;2023-02-21T14:10:43;58.96;42.88;77.21;;
76261;Laerm;65076;52.362;6.588;2023-02-21T14:13:28;56.14;41.78;69.06;;
76261;Laerm;65076;52.362;6.588;2023-02-21T14:16:08;56.84;41.77;68.01;;
76261;Laerm;65076;52.362;6.588;2023-02-21T14:18:43;54.74;39.30;65.08;;
76261;Laerm;65076;52.362;6.588;2023-02-21T14:21:25;61.02;40.64;76.07;;
76261;Laerm;65076;52.362;6.588;2023-02-21T14:23:59;55.48;40.75;67.02;;
76261;Laerm;65076;52.362;6.588;2023-02-21T14:26:39;63.16;42.26;76.24;;
76261;Laerm;65076;52.362;6.588;2023-02-21T14:29:35;59.21;43.02;74.27;;
76261;Laerm;65076;52.362;6.588;2023-02-21T14:32:27;56.45;42.10;72.16;;
76261;Laerm;65076;52.362;6.588;2023-02-21T14:35:00;56.85;43.31;66.91;;
76261;Laerm;65076;52.362;6.588;2023-02-21T14:37:43;60.17;41.45;75.53;;
76261;Laerm;65076;52.362;6.588;2023-02-21T14:40:32;56.30;40.54;72.59;;
76261;Laerm;65076;52.362;6.588;2023-02-21T14:43:39;60.26;42.04;75.93;;
76261;Laerm;65076;52.362;6.588;2023-02-21T14:47:07;54.54;41.05;64.99;;
76261;Laerm;65076;52.362;6.588;2023-02-21T14:50:15;60.35;44.19;74.14;;